Rechercher aéroport 
image banner adimage banner adimage banner ad
image banner ad

CA82 - Scripps Memorial Hospital

Situé à Encinitas, United States

ICAO - CA82, IATA -

Données fournies par Airmate  

Information générale

Coordonnées: N33°2'13" W117°17'6"
Élévation : 224 feet MSL.
 
Voir autres Aéroports à California

Données opérationnelles

Special qualification required
Heure actuelle UTC:
Heure actuelle locale:
Météo à : KCRQ - Mc Clellan-Palomar ( 10 km )
METAR: KCRQ 231353Z AUTO 00000KT 7SM SCT007 18/17 A2991 RMK AO2 SLP127 T01830167
TAF: KCRQ 231125Z 2312/2412 VRB04KT P6SM SKC FM231900 28008KT P6SM SCT100 FM240200 24004KT P6SM SCT100 FM240900 VRB03KT 3SM BR BKN004
Voir NOTAMs / SUP AIP / TFR affectant cet aéroport [VIEW]
Fréquences de communication: [VIEW]

Pistes:

Coordonnées de l'aéroport

Adresse: Encinitas United States

Vue satellite de CA82